Time;durP1;ratioP1;P1;durP2;ratioP2;P2;SDS_P1;SDS_P2;PMS_P1;PMS_P2;Temp;Humidity;BMP_temperature;BMP_pressure;BME280_temperature;BME280_humidity;BME280_pressure;Samples;Min_cycle;Max_cycle;Signal;HPM_P1;HPM_P2
2022/11/28 00:00:51;;;;;;;43.30;10.18;;;;;;;-0.53;100.00;98782.22;2613739;28;20051;-89
2022/11/28 00:02:16;;;;;;;26.63;10.15;;;;;;;-0.44;100.00;98781.56;2613499;28;20048;-80
2022/11/28 00:03:32;;;;;;;34.35;9.85;;;;;;;-0.37;100.00;98780.00;2613508;28;20132;-88
2022/11/28 00:04:51;;;;;;;33.20;11.35;;;;;;;-0.37;100.00;98773.13;2613404;28;20076;-82
2022/11/28 00:06:07;;;;;;;26.27;9.70;;;;;;;-0.43;100.00;98779.00;2613502;28;20171;-83
2022/11/28 00:07:23;;;;;;;47.70;9.90;;;;;;;-0.34;100.00;98778.34;2613524;28;20116;-82
2022/11/28 00:08:38;;;;;;;46.08;9.05;;;;;;;-0.35;100.00;98778.31;2613490;28;20123;-87
2022/11/28 00:09:54;;;;;;;53.17;10.65;;;;;;;-0.28;100.00;98780.16;2613436;28;20140;-83
2022/11/28 00:11:11;;;;;;;61.17;9.90;;;;;;;-0.28;100.00;98777.59;2613503;28;20098;-82
2022/11/28 00:12:27;;;;;;;70.03;10.93;;;;;;;-0.22;100.00;98772.59;2612777;28;20041;-82
2022/11/28 00:13:44;;;;;;;29.17;7.43;;;;;;;-0.22;100.00;98782.88;2612964;28;20052;-83
2022/11/28 00:14:59;;;;;;;53.53;9.80;;;;;;;-0.22;100.00;98774.28;2613308;28;20051;-82
2022/11/28 00:16:20;;;;;;;27.98;8.50;;;;;;;-0.30;100.00;98777.59;2613236;28;20459;-85
2022/11/28 00:17:35;;;;;;;36.20;8.57;;;;;;;-0.35;100.00;98776.63;2613414;28;20127;-80
2022/11/28 00:18:53;;;;;;;21.58;8.43;;;;;;;-0.39;100.00;98763.66;2613439;28;20045;-81
2022/11/28 00:20:09;;;;;;;40.28;8.70;;;;;;;-0.46;100.00;98763.50;2613219;28;20047;-87
2022/11/28 00:21:25;;;;;;;25.65;8.52;;;;;;;-0.70;100.00;98758.72;2613215;28;20049;-82
2022/11/28 00:22:41;;;;;;;55.05;10.68;;;;;;;-0.60;100.00;98765.78;2613267;28;20064;-81
2022/11/28 00:23:58;;;;;;;27.80;9.60;;;;;;;-0.82;100.00;98758.44;2613408;28;20052;-81
2022/11/28 00:25:13;;;;;;;64.10;12.52;;;;;;;-0.75;100.00;98756.03;2613110;28;20051;-81
2022/11/28 00:26:35;;;;;;;47.30;11.38;;;;;;;-0.67;100.00;98765.63;2613264;28;20044;-83
2022/11/28 00:27:50;;;;;;;34.97;11.90;;;;;;;-0.58;100.00;98761.56;2613192;28;20056;-83
2022/11/28 00:29:07;;;;;;;61.08;12.85;;;;;;;-0.47;100.00;98761.78;2613244;28;20457;-83
2022/11/28 00:30:22;;;;;;;68.30;12.80;;;;;;;-0.55;100.00;98759.88;2613277;28;20056;-81
2022/11/28 00:31:43;;;;;;;31.92;10.23;;;;;;;-0.68;100.00;98757.03;2613262;28;20411;-81
2022/11/28 00:32:59;;;;;;;33.30;11.63;;;;;;;-0.66;100.00;98755.34;2613135;28;20053;-85
2022/11/28 00:34:15;;;;;;;32.33;10.93;;;;;;;-0.65;100.00;98756.25;2613061;28;20044;-89
2022/11/28 00:35:30;;;;;;;40.22;11.77;;;;;;;-0.59;100.00;98751.22;2613219;28;20460;-81
2022/11/28 00:36:46;;;;;;;39.53;11.82;;;;;;;-0.36;100.00;98743.13;2609498;28;20430;-81
2022/11/28 00:38:02;;;;;;;31.00;11.82;;;;;;;-0.29;100.00;98744.97;2607260;28;20072;-82
2022/11/28 00:39:18;;;;;;;27.73;10.93;;;;;;;-0.26;100.00;98737.34;2607832;28;20439;-83
2022/11/28 00:40:33;;;;;;;32.50;12.15;;;;;;;-0.16;100.00;98746.13;2607525;28;20098;-84
2022/11/28 00:41:49;;;;;;;29.30;10.68;;;;;;;-0.12;100.00;98741.91;2607701;28;20509;-82
2022/11/28 00:43:05;;;;;;;30.70;11.68;;;;;;;-0.30;100.00;98740.69;2607309;28;20099;-81
2022/11/28 00:44:20;;;;;;;26.58;10.65;;;;;;;-0.26;100.00;98734.78;2607732;28;20558;-85
2022/11/28 00:45:36;;;;;;;26.48;10.85;;;;;;;-0.30;100.00;98730.38;2607721;28;20053;-81
2022/11/28 00:46:51;;;;;;;24.05;10.15;;;;;;;-0.22;100.00;98726.28;2607530;28;20071;-83
2022/11/28 00:48:07;;;;;;;28.13;10.93;;;;;;;-0.32;100.00;98735.53;2607667;28;20048;-82
2022/11/28 00:49:23;;;;;;;31.20;11.60;;;;;;;-0.19;100.00;98731.47;2607500;28;20422;-82
2022/11/28 00:50:38;;;;;;;30.95;12.20;;;;;;;-0.03;100.00;98721.47;2607119;28;20537;-81
2022/11/28 00:51:54;;;;;;;32.60;10.70;;;;;;;-0.08;100.00;98712.81;2607467;28;20177;-85
2022/11/28 00:53:09;;;;;;;32.47;10.85;;;;;;;-0.13;100.00;98722.16;2607287;28;20502;-83
2022/11/28 00:54:25;;;;;;;26.45;11.43;;;;;;;-0.11;100.00;98717.91;2607989;28;20106;-82
2022/11/28 00:55:40;;;;;;;27.25;11.55;;;;;;;-0.12;100.00;98717.03;2607555;28;20056;-82
2022/11/28 00:56:56;;;;;;;29.00;10.85;;;;;;;-0.09;100.00;98714.50;2607441;28;20087;-86
2022/11/28 00:58:12;;;;;;;34.55;10.50;;;;;;;0.01;100.00;98713.00;2607520;28;20049;-81
2022/11/28 00:59:27;;;;;;;30.30;11.15;;;;;;;-0.17;100.00;98718.66;2607706;28;20045;-81
2022/11/28 01:00:43;;;;;;;37.05;10.88;;;;;;;-0.30;100.00;98720.97;2607341;28;20049;-81
2022/11/28 01:01:58;;;;;;;69.93;11.98;;;;;;;-0.41;100.00;98725.03;2607592;28;20513;-82
2022/11/28 01:03:14;;;;;;;49.90;9.45;;;;;;;-0.13;100.00;98719.59;2607199;28;20041;-82
2022/11/28 01:04:30;;;;;;;71.72;14.13;;;;;;;-0.09;100.00;98714.50;2607296;28;20152;-85
2022/11/28 01:05:45;;;;;;;36.05;9.88;;;;;;;-0.18;100.00;98722.06;2607434;28;20103;-86
2022/11/28 01:07:01;;;;;;;52.30;11.77;;;;;;;-0.19;100.00;98718.59;2607463;28;20053;-84
2022/11/28 01:08:17;;;;;;;80.07;12.15;;;;;;;-0.10;100.00;98725.63;2606843;28;21066;-84
2022/11/28 01:09:32;;;;;;;31.33;8.70;;;;;;;-0.57;100.00;98729.84;2606805;28;20053;-82
2022/11/28 01:10:48;;;;;;;29.08;8.52;;;;;;;-0.66;100.00;98728.78;2607340;28;20049;-82
2022/11/28 01:12:03;;;;;;;27.20;8.82;;;;;;;-0.30;100.00;98738.09;2607210;28;20457;-82
2022/11/28 01:13:19;;;;;;;20.08;8.35;;;;;;;-0.49;100.00;98732.59;2607338;28;20048;-81
2022/11/28 01:14:35;;;;;;;32.72;9.65;;;;;;;-0.35;100.00;98732.88;2607360;28;20076;-81
2022/11/28 01:15:51;;;;;;;23.65;9.18;;;;;;;-0.41;100.00;98739.63;2606919;28;20049;-85
2022/11/28 01:17:06;;;;;;;29.52;9.10;;;;;;;-0.47;100.00;98737.78;2607201;28;20122;-83
2022/11/28 01:18:22;;;;;;;26.83;9.70;;;;;;;-0.35;100.00;98725.16;2606897;28;20057;-82
2022/11/28 01:19:37;;;;;;;26.13;10.38;;;;;;;-0.27;100.00;98727.00;2607030;28;20156;-91
2022/11/28 01:20:53;;;;;;;49.03;11.32;;;;;;;-0.14;100.00;98721.28;2606430;28;20049;-84
2022/11/28 01:22:08;;;;;;;22.75;10.23;;;;;;;-0.14;100.00;98718.69;2606622;28;20056;-82
2022/11/28 01:23:24;;;;;;;27.70;10.15;;;;;;;0.01;100.00;98719.84;2606414;28;20523;-81
2022/11/28 01:24:40;;;;;;;24.60;10.13;;;;;;;0.01;100.00;98713.00;2606738;28;20056;-80
2022/11/28 01:25:55;;;;;;;25.95;9.77;;;;;;;-0.13;100.00;98719.59;2606893;28;20138;-81
2022/11/28 01:27:11;;;;;;;25.08;10.05;;;;;;;-0.20;100.00;98718.59;2607047;28;20053;-81
2022/11/28 01:28:27;;;;;;;29.73;9.57;;;;;;;-0.26;100.00;98716.75;2607216;28;20943;-82
2022/11/28 01:29:42;;;;;;;28.27;11.10;;;;;;;-0.37;100.00;98716.53;2607118;28;20045;-82
2022/11/28 01:31:05;;;;;;;21.88;9.48;;;;;;;-0.63;100.00;98706.59;2606769;28;20506;-83
2022/11/28 01:32:21;;;;;;;27.52;10.65;;;;;;;-0.54;100.00;98708.47;2607257;28;20102;-83
2022/11/28 01:33:37;;;;;;;27.40;10.90;;;;;;;-0.53;100.00;98701.63;2607277;28;20118;-82
2022/11/28 01:34:52;;;;;;;25.58;10.25;;;;;;;-0.44;100.00;98694.09;2606825;28;20099;-82
2022/11/28 01:36:09;;;;;;;28.92;10.57;;;;;;;-0.27;100.00;98693.56;2606915;28;20076;-83
2022/11/28 01:37:28;;;;;;;23.23;10.52;;;;;;;-0.21;100.00;98691.97;2606991;28;20049;-84
2022/11/28 01:38:44;;;;;;;24.70;9.60;;;;;;;-0.30;100.00;98689.22;2607049;28;20052;-85
2022/11/28 01:39:59;;;;;;;23.00;9.95;;;;;;;-0.29;100.00;98696.09;2606948;28;20146;-83
2022/11/28 01:41:18;;;;;;;23.25;10.07;;;;;;;-0.29;100.00;98688.38;2607109;28;20051;-83
2022/11/28 01:42:34;;;;;;;23.48;9.35;;;;;;;-0.26;100.00;98695.31;2606762;28;20383;-81
2022/11/28 01:43:58;;;;;;;25.48;10.57;;;;;;;-0.19;100.00;98687.72;2606988;28;20077;-82
2022/11/28 01:45:31;;;;;;;18.63;8.65;;;;;;;-0.15;100.00;98699.81;2606805;28;20053;-84
2022/11/28 01:46:46;;;;;;;22.95;9.48;;;;;;;-0.20;100.00;98687.72;2607115;28;20045;-87
2022/11/28 01:48:02;;;;;;;21.05;9.43;;;;;;;-0.17;100.00;98691.19;2606923;28;20059;-82
2022/11/28 01:49:28;;;;;;;22.15;9.38;;;;;;;-0.22;100.00;98691.94;2606604;28;20485;-83
2022/11/28 01:50:45;;;;;;;21.75;8.73;;;;;;;-0.19;100.00;98681.72;2606701;28;20520;-86
2022/11/28 01:52:06;;;;;;;28.95;9.85;;;;;;;-0.36;100.00;98678.81;2606976;28;20122;-82
2022/11/28 01:53:24;;;;;;;42.63;9.70;;;;;;;-0.45;100.00;98682.09;2607052;28;20056;-83
2022/11/28 01:54:43;;;;;;;26.25;10.18;;;;;;;-0.38;100.00;98683.06;2606503;28;20140;-81
2022/11/28 01:56:02;;;;;;;42.47;10.02;;;;;;;-0.36;100.00;98684.81;2606614;28;20049;-81
2022/11/28 01:57:21;;;;;;;36.10;8.88;;;;;;;-0.34;100.00;98684.84;2606705;28;20257;-82
2022/11/28 01:58:40;;;;;;;33.30;9.88;;;;;;;-0.22;100.00;98685.09;2606221;28;20061;-84
2022/11/28 02:00:00;;;;;;;27.00;8.73;;;;;;;-0.18;100.00;98680.88;2606196;28;20084;-82
2022/11/28 02:01:17;;;;;;;37.08;9.35;;;;;;;-0.24;100.00;98681.63;2606663;28;20053;-82
2022/11/28 02:02:38;;;;;;;31.83;8.45;;;;;;;-0.10;100.00;98675.88;2606901;28;20049;-81
2022/11/28 02:03:54;;;;;;;28.92;9.63;;;;;;;-0.20;100.00;98674.84;2606632;28;20483;-80
2022/11/28 02:05:10;;;;;;;41.92;11.15;;;;;;;-0.26;100.00;98665.31;2607154;28;20126;-81
2022/11/28 02:06:26;;;;;;;29.48;9.40;;;;;;;-0.24;100.00;98667.88;2606488;28;20053;-82
2022/11/28 02:07:43;;;;;;;46.20;9.75;;;;;;;-0.37;100.00;98664.22;2606741;28;20045;-82
2022/11/28 02:08:58;;;;;;;41.95;9.80;;;;;;;-0.16;100.00;98662.03;2606416;28;20076;-89
2022/11/28 02:10:19;;;;;;;44.75;9.32;;;;;;;-0.23;100.00;98669.63;2606450;28;20059;-85
2022/11/28 02:11:59;;;;;;;62.97;9.70;;;;;;;-0.24;100.00;98655.91;2606633;28;20089;-82
2022/11/28 02:13:47;;;;;;;22.25;8.82;;;;;;;-0.07;100.00;98660.50;2606252;28;20053;-85
2022/11/28 02:15:13;;;;;;;29.20;8.75;;;;;;;0.15;100.00;98655.75;2597877;28;20110;-86
2022/11/28 02:16:37;;;;;;;46.45;10.63;;;;;;;0.16;100.00;98650.59;2606846;28;20320;-85
2022/11/28 02:18:11;;;;;;;44.63;8.80;;;;;;;0.02;100.00;98652.94;2606958;28;20061;-81
2022/11/28 02:19:54;;;;;;;29.23;9.02;;;;;;;0.15;100.00;98648.00;2607005;28;20071;-81
2022/11/28 02:21:24;;;;;;;30.25;8.02;;;;;;;0.12;100.00;98649.66;2606279;28;20655;-83
2022/11/28 02:23:30;;;;;;;46.58;9.80;;;;;;;-0.32;100.00;98642.00;2606910;28;20068;-82
2022/11/28 02:25:23;;;;;;;24.90;8.55;;;;;;;-0.31;100.00;98647.19;2593155;28;20077;-82
2022/11/28 02:27:08;;;;;;;30.20;8.77;;;;;;;-0.21;100.00;98650.81;2606842;28;20135;-83
2022/11/28 02:28:28;;;;;;;26.83;7.95;;;;;;;-0.26;100.00;98646.41;2564613;28;20504;-82
2022/11/28 02:30:08;;;;;;;21.25;7.55;;;;;;;-0.21;100.00;98644.78;2606373;28;20286;-82
2022/11/28 02:31:48;;;;;;;31.42;8.95;;;;;;;-0.12;100.00;98642.38;2606731;28;20163;-83
2022/11/28 02:33:28;;;;;;;20.85;8.57;;;;;;;-0.05;100.00;98649.41;2606762;28;20059;-81
2022/11/28 02:35:15;;;;;;;20.63;9.32;;;;;;;0.06;100.00;98649.56;2606688;28;20068;-82
2022/11/28 02:36:38;;;;;;;23.50;8.50;;;;;;;0.07;100.00;98633.28;2606720;28;20154;-81
2022/11/28 02:38:23;;;;;;;21.55;9.32;;;;;;;0.07;100.00;98634.97;2606783;28;20057;-82
2022/11/28 02:39:51;;;;;;;22.50;9.32;;;;;;;0.10;100.00;98638.47;2606586;28;20151;-82
2022/11/28 02:41:28;;;;;;;20.25;8.93;;;;;;;0.17;100.00;98642.03;2606901;28;20095;-82
2022/11/28 02:43:06;;;;;;;22.83;8.18;;;;;;;-0.16;100.00;98649.19;2607063;28;20586;-80
2022/11/28 02:44:27;;;;;;;24.15;9.00;;;;;;;0.08;100.00;98654.75;2606819;28;20053;-80
2022/11/28 02:45:51;;;;;;;19.33;9.10;;;;;;;0.13;100.00;98650.56;2606480;28;20132;-81
2022/11/28 02:47:31;;;;;;;24.75;9.07;;;;;;;-0.05;100.00;98657.13;2606535;28;20057;-83
2022/11/28 02:48:54;;;;;;;23.02;8.75;;;;;;;0.01;100.00;98652.91;2606697;28;20056;-79
2022/11/28 02:50:17;;;;;;;25.15;8.90;;;;;;;-0.01;100.00;98652.88;2606380;28;20045;-81
2022/11/28 02:51:35;;;;;;;20.85;9.65;;;;;;;-0.01;100.00;98653.75;2606491;28;20096;-86
2022/11/28 02:52:58;;;;;;;21.30;9.27;;;;;;;-0.06;100.00;98657.97;2606447;28;20399;-90
2022/11/28 02:54:16;;;;;;;23.27;9.32;;;;;;;-0.08;100.00;98658.75;2606467;28;20106;-82
2022/11/28 02:55:33;;;;;;;21.13;9.18;;;;;;;0.00;100.00;98657.22;2606733;28;20052;-82
2022/11/28 02:56:50;;;;;;;23.38;9.05;;;;;;;-0.07;100.00;98655.34;2606561;28;20056;-81
2022/11/28 02:58:08;;;;;;;23.70;9.35;;;;;;;0.03;100.00;98651.22;2606128;28;20136;-82
2022/11/28 02:59:35;;;;;;;22.98;9.75;;;;;;;-0.02;100.00;98646.88;2606184;28;20071;-83
2022/11/28 03:00:51;;;;;;;21.35;9.57;;;;;;;0.03;100.00;98646.06;2606589;28;20103;-80
2022/11/28 03:02:27;;;;;;;19.60;8.68;;;;;;;0.00;100.00;98641.75;2606357;28;20143;-82
2022/11/28 03:04:22;;;;;;;22.75;8.57;;;;;;;-0.05;100.00;98646.81;2606782;28;20041;-82
2022/11/28 03:05:56;;;;;;;17.92;8.05;;;;;;;-0.16;100.00;98646.59;2598651;28;20045;-81
2022/11/28 03:07:27;;;;;;;21.52;9.27;;;;;;;0.08;100.00;98641.91;2602412;28;20102;-82
2022/11/28 03:09:38;;;;;;;21.63;9.00;;;;;;;-0.22;100.00;98649.06;2606745;28;20057;-83
2022/11/28 03:10:56;;;;;;;25.95;8.38;;;;;;;-0.11;100.00;98651.00;2594703;28;20111;-81
2022/11/28 03:12:23;;;;;;;20.52;8.57;;;;;;;-0.04;100.00;98645.09;2589442;28;20064;-81
2022/11/28 03:13:46;;;;;;;29.73;9.38;;;;;;;0.05;100.00;98637.56;2592056;28;20061;-81
2022/11/28 03:15:08;;;;;;;31.67;9.05;;;;;;;0.04;100.00;98643.53;2594463;28;20041;-85
2022/11/28 03:16:29;;;;;;;18.33;8.20;;;;;;;0.20;100.00;98641.22;2602649;28;20049;-82
2022/11/28 03:17:50;;;;;;;19.52;8.95;;;;;;;0.19;100.00;98639.50;2606028;28;20143;-82
2022/11/28 03:19:48;;;;;;;21.10;10.38;;;;;;;0.26;100.00;98639.63;2606396;28;20049;-82
2022/11/28 03:21:16;;;;;;;22.33;8.40;;;;;;;0.11;100.00;98631.63;2574184;28;20081;-89
2022/11/28 03:23:01;;;;;;;19.02;8.27;;;;;;;0.07;100.00;98628.13;2589121;28;20072;-82
2022/11/28 03:24:55;;;;;;;19.30;9.07;;;;;;;0.14;100.00;98631.69;2606584;28;20123;-82
2022/11/28 03:26:35;;;;;;;16.83;8.57;;;;;;;0.18;100.00;98618.00;2606156;28;20088;-81
2022/11/28 03:27:57;;;;;;;16.80;8.43;;;;;;;0.10;100.00;98619.63;2606186;28;20068;-80
2022/11/28 03:29:22;;;;;;;;;;;;;;;0.16;100.00;98613.69;2606005;28;20053;-79
2022/11/28 03:30:49;;;;;;;21.27;7.80;;;;;;;0.16;100.00;98613.69;2605919;28;19921;-82
2022/11/28 03:32:10;;;;;;;19.05;8.63;;;;;;;-0.01;100.00;98612.56;2606326;28;20098;-82
2022/11/28 03:33:32;;;;;;;20.02;8.73;;;;;;;0.06;100.00;98610.97;2608338;28;20884;-82
2022/11/28 03:34:55;;;;;;;22.75;10.60;;;;;;;0.09;100.00;98608.44;2608041;28;20055;-83
2022/11/28 03:36:18;;;;;;;21.00;9.38;;;;;;;0.07;100.00;98610.13;2607964;28;20053;-81
2022/11/28 03:37:39;;;;;;;20.80;8.73;;;;;;;0.09;100.00;98605.84;2608054;28;20049;-81
2022/11/28 03:39:08;;;;;;;19.00;8.70;;;;;;;0.11;100.00;98604.16;2608187;28;20502;-80
2022/11/28 03:40:29;;;;;;;21.67;8.65;;;;;;;0.12;100.00;98607.63;2608454;28;20052;-79
2022/11/28 03:41:54;;;;;;;19.38;8.60;;;;;;;0.13;100.00;98599.91;2608178;28;20068;-82
2022/11/28 03:43:18;;;;;;;19.13;8.45;;;;;;;0.24;100.00;98606.94;2608237;28;20144;-81
2022/11/28 03:45:14;;;;;;;18.23;8.40;;;;;;;0.11;100.00;98605.91;2608120;28;20218;-81
2022/11/28 03:46:35;;;;;;;18.25;8.07;;;;;;;0.28;100.00;98604.44;2605293;28;20044;-81
2022/11/28 03:47:57;;;;;;;20.25;8.38;;;;;;;0.15;100.00;98601.66;2608268;28;20081;-81
2022/11/28 03:49:19;;;;;;;24.30;9.60;;;;;;;-0.35;100.00;98603.38;2608115;28;20102;-84
2022/11/28 03:50:48;;;;;;;21.25;9.18;;;;;;;-0.46;100.00;98609.19;2608119;28;20693;-81
2022/11/28 03:52:13;;;;;;;22.10;9.73;;;;;;;-0.31;100.00;98607.72;2608047;28;20053;-81
2022/11/28 03:53:37;;;;;;;25.83;10.80;;;;;;;-0.29;100.00;98606.03;2608026;28;20090;-80
2022/11/28 03:55:01;;;;;;;27.02;10.02;;;;;;;-0.35;100.00;98598.22;2608000;28;20071;-82
2022/11/28 03:56:40;;;;;;;28.23;11.30;;;;;;;-0.02;100.00;98607.38;2607829;28;20107;-82
2022/11/28 03:58:06;;;;;;;26.17;11.35;;;;;;;0.17;100.00;98608.56;2607116;28;20075;-85
2022/11/28 03:59:33;;;;;;;28.83;12.27;;;;;;;0.27;100.00;98604.41;2607470;28;20640;-81
2022/11/28 04:01:12;;;;;;;28.83;11.07;;;;;;;-0.05;100.00;98604.75;2607802;28;20045;-83
2022/11/28 04:02:50;;;;;;;29.00;12.65;;;;;;;0.13;100.00;98607.63;2602975;28;20074;-82
2022/11/28 04:04:32;;;;;;;30.30;11.13;;;;;;;0.24;100.00;98596.66;2607899;28;20513;-84
2022/11/28 04:05:54;;;;;;;28.08;12.60;;;;;;;0.39;100.00;98601.19;2607593;28;20055;-85
2022/11/28 04:07:19;;;;;;;29.52;11.57;;;;;;;0.22;100.00;98595.75;2607842;28;20091;-82
2022/11/28 04:08:42;;;;;;;27.80;11.63;;;;;;;0.06;100.00;98598.09;2607695;28;20056;-81
2022/11/28 04:10:27;;;;;;;33.17;12.55;;;;;;;0.18;100.00;98597.41;2607737;28;20383;-82
2022/11/28 04:11:53;;;;;;;35.28;12.70;;;;;;;0.44;100.00;98593.53;2607615;28;20483;-87
2022/11/28 04:13:08;;;;;;;35.78;13.98;;;;;;;0.38;100.00;98602.03;2607873;28;20061;-81
2022/11/28 04:14:35;;;;;;;33.58;13.38;;;;;;;0.52;100.00;98592.81;2607299;28;20072;-83
2022/11/28 04:15:55;;;;;;;28.25;11.63;;;;;;;0.63;100.00;98599.81;2607957;28;20098;-86
2022/11/28 04:17:18;;;;;;;31.63;13.38;;;;;;;0.70;100.00;98602.53;2607506;28;20482;-82
2022/11/28 04:18:55;;;;;;;32.10;12.80;;;;;;;0.67;100.00;98599.03;2607739;28;20735;-82
2022/11/28 04:20:25;;;;;;;34.17;14.07;;;;;;;0.57;100.00;98598.03;2607239;28;20052;-82
2022/11/28 04:21:58;;;;;;;31.88;13.00;;;;;;;0.55;100.00;98597.13;2607124;28;20431;-81
2022/11/28 04:23:20;;;;;;;30.48;12.77;;;;;;;0.64;100.00;98599.00;2606720;28;20045;-85
2022/11/28 04:24:46;;;;;;;37.75;13.45;;;;;;;0.54;100.00;98600.53;2607405;28;20450;-81
2022/11/28 04:26:14;;;;;;;39.58;14.95;;;;;;;0.61;100.00;98604.94;2607515;28;20044;-83
2022/11/28 04:27:36;;;;;;;38.78;17.30;;;;;;;0.81;100.00;98594.03;2607360;28;20090;-85
2022/11/28 04:28:55;;;;;;;37.05;15.65;;;;;;;0.79;100.00;98600.91;2607688;28;20049;-80
2022/11/28 04:30:12;;;;;;;35.67;14.23;;;;;;;0.62;100.00;98596.38;2607184;28;20076;-80
2022/11/28 04:31:29;;;;;;;33.30;13.80;;;;;;;0.59;100.00;98595.47;2607467;28;20049;-80
2022/11/28 04:32:53;;;;;;;34.53;13.70;;;;;;;0.52;100.00;98600.53;2607493;28;20052;-79
2022/11/28 04:34:13;;;;;;;27.88;13.63;;;;;;;0.73;100.00;98598.25;2607761;28;20053;-79
2022/11/28 04:35:39;;;;;;;29.80;13.93;;;;;;;0.63;100.00;98586.91;2607637;28;20090;-80
2022/11/28 04:36:58;;;;;;;33.30;14.35;;;;;;;0.63;100.00;98589.50;2607576;28;20052;-80
2022/11/28 04:38:15;;;;;;;30.40;13.77;;;;;;;0.49;100.00;98586.72;2607494;28;20080;-80
2022/11/28 04:39:33;;;;;;;38.90;15.57;;;;;;;0.50;100.00;98591.03;2607215;28;20045;-80
2022/11/28 04:41:17;;;;;;;39.35;14.75;;;;;;;0.59;100.00;98588.59;2605290;28;20174;-79
2022/11/28 04:42:41;;;;;;;30.50;13.10;;;;;;;0.86;100.00;98581.22;2607040;28;20246;-81
2022/11/28 04:44:12;;;;;;;32.13;13.13;;;;;;;0.88;100.00;98577.84;2606883;28;20190;-79
2022/11/28 04:45:42;;;;;;;31.08;13.02;;;;;;;0.99;100.00;98577.97;2607243;28;20074;-79
2022/11/28 04:46:57;;;;;;;26.38;13.02;;;;;;;1.04;100.00;98578.88;2607398;28;20041;-85
2022/11/28 04:48:13;;;;;;;31.98;13.52;;;;;;;0.84;100.00;98578.66;2607063;28;20055;-80
2022/11/28 04:49:29;;;;;;;35.10;12.68;;;;;;;0.91;100.00;98577.00;2606897;28;20381;-80
2022/11/28 04:50:56;;;;;;;34.30;14.57;;;;;;;0.83;100.00;98571.72;2607230;28;20048;-81
2022/11/28 04:52:26;;;;;;;34.00;13.65;;;;;;;0.96;100.00;98568.47;2606217;28;20060;-79
2022/11/28 04:53:51;;;;;;;35.50;13.80;;;;;;;0.93;100.00;98570.16;2607518;28;20076;-79
2022/11/28 04:55:18;;;;;;;32.40;13.50;;;;;;;1.19;100.00;98560.16;2607157;28;20056;-80
2022/11/28 04:56:48;;;;;;;35.63;14.70;;;;;;;1.00;100.00;98560.81;2606950;28;20063;-78
2022/11/28 04:58:12;;;;;;;29.30;12.27;;;;;;;1.16;100.00;98562.72;2607088;28;20705;-79
2022/11/28 04:59:30;;;;;;;32.55;14.05;;;;;;;1.19;100.00;98549.84;2606900;28;20128;-80
2022/11/28 05:00:48;;;;;;;28.92;13.15;;;;;;;1.19;100.00;98549.84;2607423;28;20495;-80
2022/11/28 05:02:05;;;;;;;31.15;14.07;;;;;;;1.01;100.00;98550.50;2606444;28;20500;-79
2022/11/28 05:03:26;;;;;;;36.20;14.25;;;;;;;1.13;100.00;98550.63;2607123;28;20048;-79
2022/11/28 05:04:43;;;;;;;33.30;14.27;;;;;;;0.83;100.00;98551.13;2607217;28;20220;-83
2022/11/28 05:06:00;;;;;;;34.92;14.60;;;;;;;1.00;100.00;98542.75;2607378;28;20434;-80
2022/11/28 05:07:16;;;;;;;35.22;14.45;;;;;;;1.13;100.00;98545.47;2606527;28;20073;-84
2022/11/28 05:08:31;;;;;;;30.60;13.95;;;;;;;1.11;100.00;98543.72;2606469;28;20068;-80
2022/11/28 05:09:47;;;;;;;34.15;13.32;;;;;;;1.19;100.00;98538.66;2606995;28;20053;-79
2022/11/28 05:11:03;;;;;;;35.05;14.45;;;;;;;1.38;100.00;98535.44;2606908;28;20041;-78
2022/11/28 05:12:18;;;;;;;33.90;14.27;;;;;;;0.92;100.00;98543.50;2607164;28;20057;-79
2022/11/28 05:13:34;;;;;;;31.08;14.57;;;;;;;1.01;100.00;98539.31;2607156;28;20053;-78
2022/11/28 05:14:50;;;;;;;33.03;13.82;;;;;;;1.13;100.00;98539.47;2606861;28;20060;-82
2022/11/28 05:16:05;;;;;;;32.97;13.52;;;;;;;1.02;100.00;98541.06;2607116;28;20052;-80
2022/11/28 05:17:21;;;;;;;34.55;13.85;;;;;;;1.29;100.00;98539.63;2606612;28;20060;-82
2022/11/28 05:18:37;;;;;;;36.83;14.00;;;;;;;1.33;100.00;98547.44;2607306;28;20195;-79
2022/11/28 05:19:52;;;;;;;40.90;14.93;;;;;;;1.18;100.00;98542.06;2606792;28;20077;-80
2022/11/28 05:21:08;;;;;;;33.75;14.20;;;;;;;1.04;100.00;98539.34;2606499;28;20484;-80
2022/11/28 05:22:24;;;;;;;39.13;15.02;;;;;;;1.20;100.00;98535.25;2606953;28;20057;-78
2022/11/28 05:23:42;;;;;;;33.97;13.80;;;;;;;1.26;100.00;98538.75;2607327;28;20491;-81
2022/11/28 05:24:58;;;;;;;32.25;13.57;;;;;;;1.12;100.00;98537.75;2607249;28;20604;-79
2022/11/28 05:26:19;;;;;;;35.22;14.48;;;;;;;0.84;100.00;98535.69;2607117;28;20052;-79
2022/11/28 05:27:35;;;;;;;35.50;14.70;;;;;;;0.80;100.00;98540.78;2607030;28;20056;-79
2022/11/28 05:28:51;;;;;;;38.25;14.93;;;;;;;0.59;100.00;98542.22;2606711;28;21074;-79
2022/11/28 05:30:07;;;;;;;37.75;16.85;;;;;;;0.74;100.00;98538.97;2606708;28;20049;-79
2022/11/28 05:31:23;;;;;;;40.35;19.38;;;;;;;0.91;100.00;98544.34;2604166;28;20553;-80
2022/11/28 05:32:40;;;;;;;49.17;20.90;;;;;;;1.05;100.00;98541.97;2605799;28;20067;-82
2022/11/28 05:33:55;;;;;;;45.25;20.20;;;;;;;0.90;100.00;98547.78;2606524;28;20865;-79
2022/11/28 05:35:11;;;;;;;48.03;20.75;;;;;;;0.84;100.00;98547.72;2606071;28;20045;-80
2022/11/28 05:36:27;;;;;;;52.65;21.08;;;;;;;0.89;100.00;98543.47;2606322;28;20581;-83
2022/11/28 05:37:42;;;;;;;46.25;20.20;;;;;;;1.00;100.00;98546.19;2606868;28;20080;-81
2022/11/28 05:38:58;;;;;;;48.65;21.00;;;;;;;1.08;100.00;98548.84;2605565;28;20060;-80
2022/11/28 05:40:14;;;;;;;48.90;20.60;;;;;;;1.00;100.00;98548.75;2606291;28;20532;-78
2022/11/28 05:41:32;;;;;;;47.50;19.52;;;;;;;1.19;100.00;98547.25;2606285;28;20128;-78
2022/11/28 05:42:48;;;;;;;53.17;21.00;;;;;;;0.96;100.00;98547.00;2606135;28;20041;-79
2022/11/28 05:44:03;;;;;;;49.70;19.63;;;;;;;0.88;100.00;98553.75;2605772;28;20476;-78
2022/11/28 05:45:19;;;;;;;51.92;20.35;;;;;;;0.90;100.00;98549.47;2606409;28;20483;-78
2022/11/28 05:46:34;;;;;;;47.17;19.88;;;;;;;1.11;100.00;98546.28;2605862;28;20064;-78
2022/11/28 05:47:50;;;;;;;46.28;19.73;;;;;;;1.31;100.00;98551.69;2606008;28;20128;-81
2022/11/28 05:49:05;;;;;;;52.78;20.08;;;;;;;1.41;100.00;98547.50;2605408;28;20126;-81
2022/11/28 05:50:21;;;;;;;50.22;19.17;;;;;;;1.36;100.00;98544.00;2606045;28;20690;-79
2022/11/28 05:51:37;;;;;;;43.50;17.70;;;;;;;1.19;100.00;98548.97;2606056;28;20388;-83
2022/11/28 05:52:52;;;;;;;38.53;16.55;;;;;;;1.03;100.00;98542.78;2606179;28;20076;-80
2022/11/28 05:54:08;;;;;;;46.95;19.38;;;;;;;0.96;100.00;98547.00;2605784;28;20060;-81
2022/11/28 05:55:24;;;;;;;50.65;19.38;;;;;;;1.00;100.00;98546.19;2606428;28;20440;-79
2022/11/28 05:56:39;;;;;;;51.17;18.35;;;;;;;0.84;100.00;98552.88;2605517;28;20048;-78
2022/11/28 05:57:55;;;;;;;45.53;18.40;;;;;;;0.82;100.00;98551.97;2605808;28;20077;-79
2022/11/28 05:59:12;;;;;;;44.67;17.42;;;;;;;0.80;100.00;98553.66;2604893;28;20076;-81
2022/11/28 06:00:28;;;;;;;40.50;16.50;;;;;;;0.83;100.00;98553.69;2605535;28;20081;-80
2022/11/28 06:01:43;;;;;;;34.38;15.32;;;;;;;0.93;100.00;98550.41;2606159;28;20057;-80
2022/11/28 06:02:59;;;;;;;40.78;15.70;;;;;;;0.97;100.00;98547.00;2606446;28;20146;-79
2022/11/28 06:04:14;;;;;;;39.42;15.48;;;;;;;0.97;100.00;98544.41;2606556;28;20073;-79
2022/11/28 06:05:30;;;;;;;34.08;13.57;;;;;;;0.90;100.00;98537.47;2606226;28;20045;-79
2022/11/28 06:06:49;;;;;;;33.30;14.73;;;;;;;1.15;100.00;98542.03;2606073;28;20507;-81
2022/11/28 06:08:04;;;;;;;33.22;14.57;;;;;;;1.26;100.00;98540.47;2605452;28;20072;-79
2022/11/28 06:09:20;;;;;;;35.38;14.60;;;;;;;1.08;100.00;98541.13;2605945;28;20045;-80
2022/11/28 06:10:36;;;;;;;37.35;14.90;;;;;;;1.12;100.00;98538.59;2605798;28;20160;-81
2022/11/28 06:11:52;;;;;;;33.25;14.10;;;;;;;1.08;100.00;98544.56;2606171;28;20060;-78
2022/11/28 06:13:10;;;;;;;29.35;12.02;;;;;;;1.10;100.00;98534.25;2605896;28;20131;-79
2022/11/28 06:14:26;;;;;;;32.85;14.30;;;;;;;0.99;100.00;98534.13;2605946;28;20052;-82
2022/11/28 06:15:43;;;;;;;33.63;13.27;;;;;;;1.02;100.00;98535.91;2606233;28;20405;-78